createdAt,value
2018-12-23T00:02:26.563Z,100881.72
2018-12-23T00:04:55.078Z,100872.55
2018-12-23T00:10:06.023Z,100878.22
2018-12-23T00:12:34.369Z,100883.62
2018-12-23T00:17:45.054Z,100884.92
2018-12-23T00:20:13.624Z,100880.33
2018-12-23T00:22:42.179Z,100881.42
2018-12-23T00:25:10.682Z,100881.09
2018-12-23T00:30:20.812Z,100888.44
2018-12-23T00:32:49.210Z,100895.97
2018-12-23T00:37:59.569Z,100889.05
2018-12-23T00:40:27.989Z,100893.12
2018-12-23T00:42:56.334Z,100894.29
2018-12-23T00:45:25.093Z,100892.98
2018-12-23T00:50:35.466Z,100898.52
2018-12-23T00:53:03.806Z,100894.59
2018-12-23T00:55:32.241Z,100903.94
2018-12-23T01:01:12.158Z,100901.56
2018-12-23T01:03:40.776Z,100903.12
2018-12-23T01:06:09.474Z,100908.03
2018-12-23T01:08:38.586Z,100904.09
2018-12-23T01:11:07.300Z,100913.75
2018-12-23T01:13:36.483Z,100926.03
2018-12-23T01:16:05.371Z,100913.75
2018-12-23T01:18:34.105Z,100913.23
2018-12-23T01:21:02.726Z,100906.20
2018-12-23T01:23:31.627Z,100907.30
2018-12-23T01:26:00.500Z,100904.34
2018-12-23T01:28:29.470Z,100891.24
2018-12-23T01:30:58.071Z,100887.66
2018-12-23T01:33:26.676Z,100889.78
2018-12-23T01:35:55.270Z,100883.72
2018-12-23T01:38:23.911Z,100881.80
2018-12-23T01:40:52.505Z,100879.52
2018-12-23T01:43:21.097Z,100877.23
2018-12-23T01:45:49.678Z,100889.02
2018-12-23T01:48:18.804Z,100878.39
2018-12-23T01:50:49.289Z,100872.50
2018-12-23T01:53:17.950Z,100873.81
2018-12-23T01:55:48.334Z,100877.63
2018-12-23T01:58:17.029Z,100884.51
2018-12-23T02:00:46.026Z,100894.19
2018-12-23T02:03:14.730Z,100898.95
2018-12-23T02:05:46.094Z,100892.39
2018-12-23T02:08:14.359Z,100891.78
2018-12-23T02:10:42.906Z,100885.72
2018-12-23T02:13:11.814Z,100897.84
2018-12-23T02:15:40.655Z,100899.00
2018-12-23T02:18:09.581Z,100908.02
2018-12-23T02:20:38.180Z,100898.02
2018-12-23T02:23:06.835Z,100892.30
2018-12-23T02:25:35.520Z,100889.67
2018-12-23T02:28:04.898Z,100897.20
2018-12-23T02:30:33.477Z,100893.77
2018-12-23T02:33:02.115Z,100889.16
2018-12-23T02:35:31.078Z,100881.64
2018-12-23T02:38:00.716Z,100880.33
2018-12-23T02:40:29.362Z,100874.11
2018-12-23T02:42:58.070Z,100873.47
2018-12-23T02:45:26.737Z,100869.05
2018-12-23T02:47:55.375Z,100882.15
2018-12-23T02:50:24.163Z,100885.26
2018-12-23T02:52:53.113Z,100886.72
2018-12-23T02:55:21.730Z,100881.15
2018-12-23T02:57:50.335Z,100878.80
2018-12-23T03:00:18.992Z,100874.03
2018-12-23T03:02:47.622Z,100888.71
2018-12-23T03:05:16.178Z,100891.16
2018-12-23T03:07:44.835Z,100903.42
2018-12-23T03:10:14.411Z,100904.73
2018-12-23T03:12:43.038Z,100897.37
2018-12-23T03:15:11.626Z,100889.66
2018-12-23T03:17:40.264Z,100892.28
2018-12-23T03:20:08.880Z,100894.41
2018-12-23T03:22:37.516Z,100910.62
2018-12-23T03:25:06.344Z,100903.70
2018-12-23T03:27:35.428Z,100897.64
2018-12-23T03:30:04.662Z,100891.42
2018-12-23T03:32:33.269Z,100885.52
2018-12-23T03:35:04.292Z,100884.70
2018-12-23T03:37:33.262Z,100887.31
2018-12-23T03:40:02.005Z,100882.38
2018-12-23T03:42:32.720Z,100880.04
2018-12-23T03:45:01.373Z,100885.77
2018-12-23T03:47:30.970Z,100890.00
2018-12-23T03:49:59.627Z,100890.75
2018-12-23T03:52:28.251Z,100890.73
2018-12-23T03:54:56.848Z,100899.19
2018-12-23T03:57:25.836Z,100890.33
2018-12-23T03:59:54.734Z,100893.55
2018-12-23T04:02:23.427Z,100898.12
2018-12-23T04:04:52.262Z,100894.52
2018-12-23T04:07:20.787Z,100892.06
2018-12-23T04:09:49.383Z,100880.13
2018-12-23T04:12:18.375Z,100891.39
2018-12-23T04:14:47.020Z,100886.76
2018-12-23T04:17:15.844Z,100889.86
2018-12-23T04:19:44.507Z,100899.17
2018-12-23T04:22:14.243Z,100895.89
2018-12-23T04:24:43.757Z,100894.73
2018-12-23T04:27:12.438Z,100893.42
2018-12-23T04:29:41.246Z,100892.11
2018-12-23T04:32:09.990Z,100892.45
2018-12-23T04:34:38.965Z,100890.98
2018-12-23T04:37:09.219Z,100884.44
2018-12-23T04:39:37.886Z,100879.05
2018-12-23T04:42:06.920Z,100875.95
2018-12-23T04:44:37.189Z,100872.02
2018-12-23T04:47:06.038Z,100878.56
2018-12-23T04:49:34.818Z,100875.83
2018-12-23T04:52:03.766Z,100872.84
2018-12-23T04:54:32.880Z,100884.78
2018-12-23T04:57:03.226Z,100879.54
2018-12-23T04:59:32.952Z,100871.69
2018-12-23T05:08:04.601Z,100882.39
2018-12-23T05:10:35.282Z,100885.92
2018-12-23T05:13:05.178Z,100885.73
2018-12-23T05:15:33.765Z,100882.62
2018-12-23T05:18:03.458Z,100885.25
2018-12-23T05:20:32.052Z,100883.78
2018-12-23T05:23:00.789Z,100872.34
2018-12-23T05:25:29.492Z,100873.53
2018-12-23T05:27:58.238Z,100876.48
2018-12-23T05:30:27.351Z,100892.53
2018-12-23T05:32:56.309Z,100883.52
2018-12-23T05:35:24.910Z,100884.49
2018-12-23T05:37:53.645Z,100887.59
2018-12-23T05:40:22.480Z,100887.11
2018-12-23T05:42:52.710Z,100879.74
2018-12-23T05:45:21.343Z,100882.48
2018-12-23T05:47:50.126Z,100881.17
2018-12-23T05:50:18.855Z,100883.30
2018-12-23T05:52:47.591Z,100873.80
2018-12-23T05:55:23.139Z,100871.67
2018-12-23T05:57:53.863Z,100875.27
2018-12-23T06:00:22.662Z,100884.13
2018-12-23T06:02:51.665Z,100889.23
2018-12-23T06:05:20.411Z,100880.90
2018-12-23T06:07:49.027Z,100877.98
2018-12-23T06:10:18.168Z,100885.34
2018-12-23T06:12:47.818Z,100896.64
2018-12-23T06:15:16.415Z,100900.08
2018-12-23T06:17:45.148Z,100907.59
2018-12-23T06:20:13.898Z,100910.03
2018-12-23T06:22:42.641Z,100903.64
2018-12-23T06:25:11.486Z,100903.08
2018-12-23T06:27:41.661Z,100908.31
2018-12-23T06:30:10.293Z,100905.36
2018-12-23T06:32:39.159Z,100912.73
2018-12-23T06:35:07.944Z,100909.62
2018-12-23T06:37:36.575Z,100909.84
2018-12-23T06:40:06.362Z,100914.59
2018-12-23T06:42:34.995Z,100918.52
2018-12-23T06:45:05.292Z,100913.28
2018-12-23T06:47:35.237Z,100912.91
2018-12-23T06:50:04.678Z,100906.03
2018-12-23T06:52:33.443Z,100899.16
2018-12-23T06:55:02.178Z,100896.05
2018-12-23T06:57:30.842Z,100899.00
2018-12-23T06:59:59.846Z,100895.45
2018-12-23T07:02:29.915Z,100893.17
2018-12-23T07:04:58.881Z,100900.23
2018-12-23T07:07:27.498Z,100904.86
2018-12-23T07:09:56.507Z,100905.20
2018-12-23T07:12:25.173Z,100913.72
2018-12-23T07:14:53.828Z,100912.75
2018-12-23T07:17:22.886Z,100915.70
2018-12-23T07:19:51.652Z,100919.97
2018-12-23T07:22:21.348Z,100924.87
2018-12-23T07:24:50.062Z,100925.36
2018-12-23T07:27:18.784Z,100919.78
2018-12-23T07:29:47.656Z,100927.79
2018-12-23T07:32:16.586Z,100925.17
2018-12-23T07:34:45.343Z,100924.02
2018-12-23T07:37:14.156Z,100923.64
2018-12-23T07:39:43.028Z,100934.75
2018-12-23T07:42:12.131Z,100934.22
2018-12-23T07:44:42.992Z,100931.87
2018-12-23T07:47:11.720Z,100929.89
2018-12-23T07:49:40.456Z,100934.45
2018-12-23T07:52:09.070Z,100925.89
2018-12-23T07:54:38.407Z,100931.77
2018-12-23T07:57:06.990Z,100931.91
2018-12-23T07:59:36.976Z,100929.41
2018-12-23T08:02:05.567Z,100929.89
2018-12-23T08:04:34.270Z,100929.70
2018-12-23T08:07:02.926Z,100932.17
2018-12-23T08:09:31.550Z,100930.05
2018-12-23T08:12:00.244Z,100926.94
2018-12-23T08:14:30.074Z,100932.66
2018-12-23T08:16:58.898Z,100938.86
2018-12-23T08:19:27.491Z,100936.25
2018-12-23T08:21:58.255Z,100938.53
2018-12-23T08:24:26.988Z,100935.77
2018-12-23T08:26:55.932Z,100931.69
2018-12-23T08:29:24.539Z,100936.66
2018-12-23T08:31:53.474Z,100938.30
2018-12-23T08:34:22.210Z,100938.72
2018-12-23T08:36:50.922Z,100932.51
2018-12-23T08:39:19.544Z,100932.36
2018-12-23T08:41:49.641Z,100933.19
2018-12-23T08:44:18.875Z,100933.86
2018-12-23T08:46:48.555Z,100930.30
2018-12-23T08:49:18.637Z,100929.66
2018-12-23T08:51:47.253Z,100922.63
2018-12-23T08:54:16.627Z,100921.17
2018-12-23T08:56:45.592Z,100920.42
2018-12-23T08:59:14.353Z,100907.18
2018-12-23T09:01:43.423Z,100909.31
2018-12-23T09:04:12.403Z,100906.05
2018-12-23T09:06:41.006Z,100899.84
2018-12-23T09:09:12.814Z,100902.53
2018-12-23T09:11:42.991Z,100893.22
2018-12-23T09:14:12.060Z,100889.35
2018-12-23T09:16:40.737Z,100891.19
2018-12-23T09:19:09.498Z,100893.05
2018-12-23T09:21:38.127Z,100892.13
2018-12-23T09:24:06.873Z,100893.80
2018-12-23T09:26:35.895Z,100886.50
2018-12-23T09:29:04.598Z,100888.35
2018-12-23T09:31:33.419Z,100876.74
2018-12-23T09:34:02.140Z,100872.02
2018-12-23T09:36:32.213Z,100862.23
2018-12-23T09:39:00.815Z,100863.39
2018-12-23T09:41:29.545Z,100859.31
2018-12-23T09:43:58.574Z,100859.16
2018-12-23T09:46:28.483Z,100861.34
2018-12-23T09:48:57.095Z,100858.08
2018-12-23T09:51:25.708Z,100857.64
2018-12-23T09:53:57.070Z,100851.63
2018-12-23T09:56:25.697Z,100848.58
2018-12-23T09:58:54.272Z,100842.90
2018-12-23T10:01:23.290Z,100834.72
2018-12-23T10:03:51.756Z,100830.34
2018-12-23T10:06:20.722Z,100821.71
2018-12-23T10:08:49.260Z,100816.48
2018-12-23T10:11:17.986Z,100821.13
2018-12-23T10:13:46.648Z,100805.92
2018-12-23T10:16:16.016Z,100805.45
2018-12-23T10:18:44.797Z,100798.94
2018-12-23T10:21:13.507Z,100794.88
2018-12-23T10:23:42.539Z,100795.88
2018-12-23T10:26:11.178Z,100790.51
2018-12-23T10:28:40.861Z,100789.23
2018-12-23T10:31:09.495Z,100785.95
2018-12-23T10:33:38.529Z,100783.01
2018-12-23T10:36:07.437Z,100780.42
2018-12-23T10:38:36.019Z,100785.51
2018-12-23T10:41:05.148Z,100778.95
2018-12-23T10:43:34.162Z,100784.39
2018-12-23T10:46:04.184Z,100783.58
2018-12-23T10:48:32.811Z,100785.91
2018-12-23T10:51:01.637Z,100776.89
2018-12-23T10:53:30.203Z,100766.56
2018-12-23T10:55:58.874Z,100756.39
2018-12-23T10:58:27.758Z,100759.37
2018-12-23T11:00:56.355Z,100758.88
2018-12-23T11:03:25.058Z,100756.26
2018-12-23T11:05:54.063Z,100751.02
2018-12-23T11:08:26.855Z,100752.98
2018-12-23T11:10:53.634Z,100750.68
2018-12-23T11:13:22.426Z,100742.64
2018-12-23T11:15:52.634Z,100743.33
2018-12-23T11:18:21.286Z,100738.90
2018-12-23T11:20:50.143Z,100738.58
2018-12-23T11:23:19.164Z,100735.09
2018-12-23T11:25:48.216Z,100730.83
2018-12-23T11:28:16.965Z,100724.27
2018-12-23T11:30:45.586Z,100715.91
2018-12-23T11:33:14.578Z,100708.36
2018-12-23T11:35:43.984Z,100699.84
2018-12-23T11:38:12.810Z,100685.73
2018-12-23T11:40:42.839Z,100678.84
2018-12-23T11:43:11.647Z,100667.00
2018-12-23T11:45:40.704Z,100662.74
2018-12-23T11:48:10.674Z,100658.64
2018-12-23T11:50:39.683Z,100649.46
2018-12-23T11:53:09.736Z,100641.26
2018-12-23T11:55:38.806Z,100623.37
2018-12-23T11:58:07.734Z,100617.64
2018-12-23T12:00:36.479Z,100614.17
2018-12-23T12:03:06.128Z,100607.13
2018-12-23T12:05:36.456Z,100598.92
2018-12-23T12:08:05.624Z,100590.40
2018-12-23T12:10:34.367Z,100578.92
2018-12-23T12:13:03.176Z,100563.50
2018-12-23T12:15:32.393Z,100553.19
2018-12-23T12:18:01.086Z,100544.01
2018-12-23T12:20:30.284Z,100533.16
2018-12-23T12:22:59.065Z,100534.48
2018-12-23T12:25:27.946Z,100528.91
2018-12-23T12:27:56.960Z,100510.69
2018-12-23T12:30:25.736Z,100503.49
2018-12-23T12:32:54.747Z,100498.73
2018-12-23T12:35:23.455Z,100494.13
2018-12-23T12:37:52.020Z,100487.23
2018-12-23T12:40:21.266Z,100480.19
2018-12-23T12:42:49.930Z,100473.63
2018-12-23T12:45:19.097Z,100476.75
2018-12-23T12:47:47.697Z,100473.13
2018-12-23T12:50:16.358Z,100469.06
2018-12-23T12:52:45.196Z,100468.08
2018-12-23T12:55:16.608Z,100461.02
2018-12-23T12:57:45.430Z,100462.15
2018-12-23T13:00:14.279Z,100459.52
2018-12-23T13:02:43.044Z,100446.90
2018-12-23T13:05:11.732Z,100437.89
2018-12-23T13:07:40.758Z,100432.83
2018-12-23T13:10:09.495Z,100428.04
2018-12-23T13:12:38.201Z,100417.07
2018-12-23T13:15:06.967Z,100408.55
2018-12-23T13:17:35.717Z,100402.81
2018-12-23T13:20:05.748Z,100402.98
2018-12-23T13:22:34.537Z,100389.52
2018-12-23T13:25:03.270Z,100385.94
2018-12-23T13:27:31.936Z,100377.39
2018-12-23T13:30:00.761Z,100371.51
2018-12-23T13:32:29.798Z,100366.27
2018-12-23T13:34:58.951Z,100365.77
2018-12-23T13:37:27.710Z,100356.73
2018-12-23T13:40:01.337Z,100349.53
2018-12-23T13:43:12.518Z,100339.04
2018-12-23T13:45:59.795Z,100339.04
2018-12-23T13:49:43.987Z,100334.92
2018-12-23T13:53:15.898Z,100323.94
2018-12-23T13:57:06.432Z,100313.62
2018-12-23T14:00:42.985Z,100311.98
2018-12-23T14:04:12.460Z,100309.86
2018-12-23T14:07:29.341Z,100304.92
2018-12-23T14:10:56.091Z,100290.68
2018-12-23T14:13:25.791Z,100274.77
2018-12-23T14:15:54.820Z,100279.34
2018-12-23T14:18:24.905Z,100276.08
2018-12-23T14:20:54.592Z,100267.86
2018-12-23T14:23:24.574Z,100264.92
2018-12-23T14:25:53.305Z,100265.06
2018-12-23T14:28:22.270Z,100265.21
2018-12-23T14:30:51.183Z,100262.59
2018-12-23T14:33:19.941Z,100263.90
2018-12-23T14:35:48.919Z,100248.80
2018-12-23T14:38:17.811Z,100250.25
2018-12-23T14:40:46.598Z,100237.63
2018-12-23T14:43:15.173Z,100250.56
2018-12-23T14:45:44.199Z,100241.88
2018-12-23T14:48:12.860Z,100239.58
2018-12-23T14:50:42.448Z,100237.59
2018-12-23T14:53:11.292Z,100238.41
2018-12-23T14:55:40.198Z,100233.01
2018-12-23T14:58:11.122Z,100232.66
2018-12-23T15:00:39.981Z,100231.66
2018-12-23T15:03:08.586Z,100229.36
2018-12-23T15:05:37.221Z,100229.52
2018-12-23T15:08:06.465Z,100234.28
2018-12-23T15:10:35.178Z,100234.42
2018-12-23T15:13:03.856Z,100230.16
2018-12-23T15:15:32.865Z,100231.61
2018-12-23T15:18:01.454Z,100238.81
2018-12-23T15:20:30.387Z,100236.03
2018-12-23T15:22:59.003Z,100229.30
2018-12-23T15:25:28.605Z,100230.25
2018-12-23T15:27:57.750Z,100218.93
2018-12-23T15:30:26.463Z,100219.09
2018-12-23T15:32:55.164Z,100220.23
2018-12-23T15:35:24.891Z,100210.36
2018-12-23T15:37:53.539Z,100221.69
2018-12-23T15:40:22.589Z,100224.48
2018-12-23T15:42:51.273Z,100218.73
2018-12-23T15:45:20.372Z,100212.80
2018-12-23T15:47:49.031Z,100205.55
2018-12-23T15:50:17.630Z,100209.50
2018-12-23T15:52:46.830Z,100209.20
2018-12-23T15:55:15.699Z,100202.95
2018-12-23T15:57:44.389Z,100206.52
2018-12-23T16:00:14.812Z,100192.89
2018-12-23T16:02:44.593Z,100196.69
2018-12-23T16:05:13.178Z,100195.37
2018-12-23T16:07:42.069Z,100197.13
2018-12-23T16:10:10.936Z,100195.14
2018-12-23T16:12:40.025Z,100194.81
2018-12-23T16:15:08.631Z,100193.49
2018-12-23T16:17:37.578Z,100193.63
2018-12-23T16:20:12.072Z,100195.26
2018-12-23T16:22:43.086Z,100203.30
2018-12-23T16:25:11.847Z,100194.92
2018-12-23T16:27:41.980Z,100193.11
2018-12-23T16:30:12.492Z,100192.61
2018-12-23T16:32:41.262Z,100192.25
2018-12-23T16:35:09.992Z,100191.59
2018-12-23T16:37:39.165Z,100193.05
2018-12-23T16:40:11.000Z,100190.23
2018-12-23T16:42:39.664Z,100191.86
2018-12-23T16:45:08.344Z,100189.08
2018-12-23T16:47:36.975Z,100189.90
2018-12-23T16:50:07.146Z,100192.52
2018-12-23T16:52:35.955Z,100192.97
2018-12-23T16:55:04.762Z,100194.10
2018-12-23T16:57:33.674Z,100193.63
2018-12-23T17:00:02.498Z,100193.77
2018-12-23T17:02:31.353Z,100192.45
2018-12-23T17:04:59.921Z,100193.40
2018-12-23T17:07:28.726Z,100183.38
2018-12-23T17:09:57.531Z,100180.60
2018-12-23T17:12:26.165Z,100175.98
2018-12-23T17:14:55.054Z,100184.30
2018-12-23T17:17:23.799Z,100177.08
2018-12-23T17:19:53.460Z,100176.71
2018-12-23T17:22:22.114Z,100173.27
2018-12-23T17:24:51.378Z,100172.08
2018-12-23T17:27:20.339Z,100172.43
2018-12-23T17:29:49.240Z,100164.04
2018-12-23T17:32:17.894Z,100165.17
2018-12-23T17:34:46.504Z,100163.98
2018-12-23T17:37:15.285Z,100167.73
2018-12-23T17:39:43.997Z,100170.53
2018-12-23T17:42:13.926Z,100169.84
2018-12-23T17:44:44.196Z,100170.97
2018-12-23T17:47:13.376Z,100165.21
2018-12-23T17:49:42.054Z,100176.08
2018-12-23T17:52:11.007Z,100176.08
2018-12-23T17:54:39.599Z,100172.45
2018-12-23T17:57:08.195Z,100177.83
2018-12-23T17:59:37.042Z,100181.59
2018-12-23T18:02:05.648Z,100182.25
2018-12-23T18:04:34.241Z,100182.56
2018-12-23T18:07:03.929Z,100179.74
2018-12-23T18:09:32.728Z,100181.05
2018-12-23T18:12:01.343Z,100186.44
2018-12-23T18:14:30.300Z,100176.27
2018-12-23T18:16:59.063Z,100183.66
2018-12-23T18:19:27.670Z,100180.03
2018-12-23T18:21:56.336Z,100184.47
2018-12-23T18:24:25.250Z,100176.08
2018-12-23T18:26:53.947Z,100175.89
2018-12-23T18:29:22.613Z,100168.50
2018-12-23T18:31:51.413Z,100173.58
2018-12-23T18:34:20.331Z,100176.84
2018-12-23T18:36:48.950Z,100172.08
2018-12-23T18:39:17.824Z,100168.12
2018-12-23T18:41:46.795Z,100170.60
2018-12-23T18:44:15.903Z,100171.73
2018-12-23T18:46:45.372Z,100178.12
2018-12-23T18:49:14.378Z,100175.30
2018-12-23T18:51:43.085Z,100183.50
2018-12-23T18:54:12.065Z,100182.03
2018-12-23T18:56:45.104Z,100178.71
2018-12-23T18:59:16.820Z,100182.97
2018-12-23T19:02:09.880Z,100182.47
2018-12-23T19:04:39.073Z,100180.00
2018-12-23T19:07:09.564Z,100174.05
2018-12-23T19:10:28.660Z,100174.86
2018-12-23T19:14:04.733Z,100170.72
2018-12-23T19:17:45.702Z,100181.05
2018-12-23T19:21:04.676Z,100178.61
2018-12-23T19:24:32.022Z,100174.86
2018-12-23T19:28:16.101Z,100173.85
2018-12-23T19:31:54.240Z,100168.24
2018-12-23T19:35:10.546Z,100165.92
2018-12-23T19:38:47.188Z,100175.95
2018-12-23T19:42:20.517Z,100181.34
2018-12-23T19:46:01.288Z,100179.02
2018-12-23T19:49:23.386Z,100175.95
2018-12-23T19:52:40.382Z,100181.21
2018-12-23T19:55:50.638Z,100178.08
2018-12-23T19:59:21.998Z,100173.50
2018-12-23T20:02:51.621Z,100170.88
2018-12-23T20:06:35.811Z,100170.50
2018-12-23T20:09:56.804Z,100170.31
2018-12-23T20:13:33.330Z,100168.14
2018-12-23T20:17:19.813Z,100164.51
2018-12-23T20:20:30.842Z,100163.54
2018-12-23T20:23:53.311Z,100169.99
2018-12-23T20:27:20.388Z,100163.73
2018-12-23T20:30:40.612Z,100157.11
2018-12-23T20:33:56.587Z,100160.71
2018-12-23T20:37:05.293Z,100157.58
2018-12-23T20:40:35.286Z,100163.00
2018-12-23T20:43:57.199Z,100159.17
2018-12-23T20:47:37.739Z,100153.36
2018-12-23T20:51:15.462Z,100160.88
2018-12-23T20:55:09.697Z,100156.27
2018-12-23T20:58:22.565Z,100152.44
2018-12-23T21:01:59.028Z,100154.38
2018-12-23T21:05:33.457Z,100141.52
2018-12-23T21:09:01.365Z,100136.41
2018-12-23T21:12:32.553Z,100130.45
2018-12-23T21:16:02.989Z,100131.22
2018-12-23T21:19:39.784Z,100142.56
2018-12-23T21:22:44.632Z,100141.55
2018-12-23T21:26:20.026Z,100132.03
2018-12-23T21:30:06.623Z,100126.06
2018-12-23T21:33:53.593Z,100120.30
2018-12-23T21:37:11.999Z,100121.11
2018-12-23T21:40:43.533Z,100128.51
2018-12-23T21:44:15.971Z,100121.57
2018-12-23T21:47:52.832Z,100136.17
2018-12-23T21:51:39.214Z,100128.73
2018-12-23T21:55:02.020Z,100127.22
2018-12-23T21:58:42.420Z,100121.99
2018-12-23T22:02:30.347Z,100130.91
2018-12-23T22:06:01.519Z,100129.59
2018-12-23T22:09:25.574Z,100116.73
2018-12-23T22:12:37.600Z,100116.56
2018-12-23T22:15:07.597Z,100106.96
2018-12-23T22:17:36.370Z,100118.42
2018-12-23T22:20:06.167Z,100113.30
2018-12-23T22:22:35.108Z,100105.52
2018-12-23T22:25:04.243Z,100100.00
2018-12-23T22:27:33.078Z,100102.75
2018-12-23T22:30:01.851Z,100093.16
2018-12-23T22:32:30.901Z,100090.53
2018-12-23T22:34:59.690Z,100078.17
2018-12-23T22:37:28.812Z,100087.20
2018-12-23T22:39:57.552Z,100086.50
2018-12-23T22:42:26.667Z,100087.45
2018-12-23T22:44:55.273Z,100088.77
2018-12-23T22:47:24.395Z,100076.30
2018-12-23T22:49:53.141Z,100071.14
2018-12-23T22:52:21.913Z,100064.75
2018-12-23T22:54:50.533Z,100063.43
2018-12-23T22:57:19.520Z,100073.38
2018-12-23T22:59:48.276Z,100061.86
2018-12-23T23:02:17.354Z,100065.62
2018-12-23T23:04:46.032Z,100064.10
2018-12-23T23:07:14.690Z,100066.42
2018-12-23T23:09:43.397Z,100069.38
2018-12-23T23:12:12.174Z,100074.03
2018-12-23T23:14:41.144Z,100068.11
2018-12-23T23:17:10.547Z,100067.30
2018-12-23T23:19:39.278Z,100063.54
2018-12-23T23:22:08.043Z,100065.48
2018-12-23T23:24:37.094Z,100055.58
2018-12-23T23:27:07.346Z,100053.77
2018-12-23T23:29:35.918Z,100060.15
2018-12-23T23:32:04.539Z,100052.44
2018-12-23T23:34:33.232Z,100067.94
2018-12-23T23:37:02.294Z,100064.80
2018-12-23T23:39:31.982Z,100059.84
2018-12-23T23:42:00.723Z,100034.92
2018-12-23T23:44:29.669Z,100038.06
2018-12-23T23:46:58.490Z,100032.48
2018-12-23T23:49:27.370Z,100028.33
2018-12-23T23:51:55.972Z,100032.79
2018-12-23T23:54:24.686Z,100032.08
2018-12-23T23:56:53.294Z,100024.69
2018-12-23T23:59:21.875Z,100027.45
